Time;durP1;ratioP1;P1;durP2;ratioP2;P2;SDS_P1;SDS_P2;PMS_P1;PMS_P2;Temp;Humidity;BMP_temperature;BMP_pressure;BME280_temperature;BME280_humidity;BME280_pressure;Samples;Min_cycle;Max_cycle;Signal;HPM_P1;HPM_P2
2023/01/21 00:00:54;;;;;;;46.72;26.80;;;;;;;-3.33;100.00;101168.41;5002752;28;20266;-77
2023/01/21 00:03:21;;;;;;;43.72;27.10;;;;;;;-3.29;100.00;101170.94;5001484;28;20225;-76
2023/01/21 00:05:47;;;;;;;41.13;26.25;;;;;;;-3.43;100.00;101186.88;4991245;28;20268;-76
2023/01/21 00:08:14;;;;;;;44.25;26.80;;;;;;;-3.46;100.00;101184.31;5002772;28;20224;-77
2023/01/21 00:10:40;;;;;;;43.00;26.90;;;;;;;-3.48;100.00;101188.72;4999105;28;20262;-77
2023/01/21 00:13:08;;;;;;;47.92;28.08;;;;;;;-3.45;100.00;101199.13;5002485;28;20324;-76
2023/01/21 00:15:35;;;;;;;57.80;28.08;;;;;;;-3.53;100.00;101200.16;5002677;28;20256;-76
2023/01/21 00:18:02;;;;;;;48.55;26.75;;;;;;;-3.57;100.00;101204.56;5002788;28;20748;-77
2023/01/21 00:20:28;;;;;;;50.45;26.92;;;;;;;-3.61;100.00;101198.53;5001710;28;20283;-78
2023/01/21 00:22:55;;;;;;;46.45;26.60;;;;;;;-3.57;100.00;101204.56;5002680;28;20256;-77
2023/01/21 00:25:22;;;;;;;44.47;25.83;;;;;;;-3.53;100.00;101211.47;5002296;28;20236;-78
2023/01/21 00:27:48;;;;;;;46.53;28.00;;;;;;;-3.56;100.00;101221.97;5002141;28;20232;-78
2023/01/21 00:30:17;;;;;;;44.65;26.20;;;;;;;-3.60;100.00;101209.84;5002553;28;20193;-77
2023/01/21 00:32:43;;;;;;;46.13;26.73;;;;;;;-3.55;100.00;101215.88;5003058;28;20292;-77
2023/01/21 00:35:10;;;;;;;41.67;24.92;;;;;;;-3.59;100.00;101216.81;5001299;28;20729;-77
2023/01/21 00:37:37;;;;;;;37.08;24.27;;;;;;;-3.62;100.00;101229.94;5002543;28;20213;-77
2023/01/21 00:40:04;;;;;;;41.53;25.23;;;;;;;-3.68;100.00;101230.91;5003003;28;20224;-77
2023/01/21 00:42:31;;;;;;;39.53;26.05;;;;;;;-3.61;100.00;101227.28;5001503;28;20299;-78
2023/01/21 00:44:58;;;;;;;45.45;24.15;;;;;;;-3.57;100.00;101230.72;5002506;28;20201;-77
2023/01/21 00:47:26;;;;;;;40.28;24.45;;;;;;;-3.60;100.00;101233.38;5002119;28;20249;-78
2023/01/21 00:49:53;;;;;;;44.65;25.33;;;;;;;-3.61;100.00;101237.75;5001676;28;20197;-77
2023/01/21 00:52:20;;;;;;;40.05;24.70;;;;;;;-3.57;100.00;101230.72;5000992;28;20321;-78
2023/01/21 00:54:46;;;;;;;41.58;24.60;;;;;;;-3.73;100.00;101240.56;5002700;28;20217;-78
2023/01/21 00:57:13;;;;;;;41.25;25.35;;;;;;;-3.72;100.00;101257.09;5000122;28;20267;-78
2023/01/21 00:59:40;;;;;;;45.85;24.95;;;;;;;-3.71;100.00;101256.22;5002370;28;20259;-77
2023/01/21 01:02:06;;;;;;;39.78;25.08;;;;;;;-3.63;100.00;101254.31;5001949;28;20240;-78
2023/01/21 01:04:34;;;;;;;48.03;25.20;;;;;;;-3.62;100.00;101261.28;5001088;28;20207;-77
2023/01/21 01:07:01;;;;;;;47.03;25.50;;;;;;;-3.62;100.00;101256.06;5001098;28;20268;-78
2023/01/21 01:09:28;;;;;;;46.22;25.40;;;;;;;-3.54;100.00;101267.25;5002929;28;20251;-77
2023/01/21 01:11:55;;;;;;;40.95;24.88;;;;;;;-3.50;100.00;101271.53;4999761;28;20248;-78
2023/01/21 01:14:21;;;;;;;46.08;26.70;;;;;;;-3.58;100.00;101289.09;5000410;28;20220;-78
2023/01/21 01:16:48;;;;;;;42.25;24.80;;;;;;;-3.58;100.00;101288.25;5000929;28;20240;-79
2023/01/21 01:19:15;;;;;;;39.83;24.90;;;;;;;-3.67;100.00;101295.34;5001382;28;20574;-79
2023/01/21 01:21:43;;;;;;;42.13;24.25;;;;;;;-3.83;100.00;101306.94;4988118;28;20257;-79
2023/01/21 01:24:10;;;;;;;45.10;25.40;;;;;;;-3.83;100.00;101304.31;5000017;28;20241;-79
2023/01/21 01:26:36;;;;;;;48.33;29.00;;;;;;;-3.78;100.00;101308.56;4996696;28;20293;-77
2023/01/21 01:29:03;;;;;;;47.30;26.30;;;;;;;-3.84;100.00;101313.03;4995737;28;20207;-78
2023/01/21 01:31:30;;;;;;;44.42;27.83;;;;;;;-3.90;100.00;101315.75;5002305;28;20243;-77
2023/01/21 01:33:57;;;;;;;48.65;26.15;;;;;;;-3.88;100.00;101317.44;5002403;28;20208;-77
2023/01/21 01:36:23;;;;;;;38.50;25.17;;;;;;;-3.93;100.00;101319.25;5001232;28;20244;-77
2023/01/21 01:38:52;;;;;;;38.63;24.27;;;;;;;-3.97;100.00;101322.81;5003428;28;20225;-77
2023/01/21 01:41:22;;;;;;;42.38;26.73;;;;;;;-3.92;100.00;101328.81;5001852;28;20291;-77
2023/01/21 01:43:51;;;;;;;43.08;25.55;;;;;;;-3.87;100.00;101323.50;5002543;28;20272;-77
2023/01/21 01:46:18;;;;;;;44.22;26.33;;;;;;;-3.77;100.00;101325.09;5001951;28;20292;-77
2023/01/21 01:48:46;;;;;;;42.65;25.15;;;;;;;-3.78;100.00;101333.84;5002893;28;20220;-79
2023/01/21 01:51:14;;;;;;;44.92;26.20;;;;;;;-3.90;100.00;101349.69;5001001;28;20268;-78
2023/01/21 01:53:43;;;;;;;37.55;23.98;;;;;;;-3.86;100.00;101352.22;5001794;28;20243;-78
2023/01/21 01:56:12;;;;;;;41.38;24.70;;;;;;;-3.83;100.00;101353.94;5001712;28;20264;-78
2023/01/21 01:58:38;;;;;;;40.88;24.35;;;;;;;-3.87;100.00;101362.69;4998762;28;20288;-78
2023/01/21 02:01:05;;;;;;;47.75;26.73;;;;;;;-3.85;100.00;101361.81;5000321;28;20261;-78
2023/01/21 02:03:48;;;;;;;38.42;24.30;;;;;;;-3.95;100.00;101362.81;4991176;28;20394;-78
2023/01/21 02:06:15;;;;;;;44.35;26.45;;;;;;;-3.95;100.00;101373.28;5001721;28;20216;-77
2023/01/21 02:08:42;;;;;;;44.33;25.92;;;;;;;-3.97;100.00;101372.44;5004971;28;20201;-78
2023/01/21 02:11:18;;;;;;;48.47;25.30;;;;;;;-3.83;100.00;101383.53;5006426;28;20287;-78
2023/01/21 02:13:48;;;;;;;41.47;25.50;;;;;;;-3.89;100.00;101383.66;5005677;28;20234;-78
2023/01/21 02:16:25;;;;;;;40.65;25.42;;;;;;;-3.97;100.00;101386.34;5006162;28;20224;-78
2023/01/21 02:18:57;;;;;;;44.65;24.55;;;;;;;-3.89;100.00;101383.66;5006039;28;20851;-78
2023/01/21 02:21:48;;;;;;;41.95;25.45;;;;;;;-3.87;100.00;101387.09;5005018;28;20228;-77
2023/01/21 02:24:48;;;;;;;36.15;23.27;;;;;;;-3.93;100.00;101387.16;5002700;28;20239;-77
2023/01/21 02:27:48;;;;;;;35.80;24.52;;;;;;;-3.90;100.00;101389.75;5004108;28;20670;-76
2023/01/21 02:30:30;;;;;;;40.25;23.77;;;;;;;-3.83;100.00;101394.00;5003802;28;20297;-76
2023/01/21 02:33:16;;;;;;;37.17;24.48;;;;;;;-3.88;100.00;101395.81;5005826;28;20213;-76
2023/01/21 02:35:47;;;;;;;38.80;24.30;;;;;;;-3.90;100.00;101392.34;5003421;28;20237;-76
2023/01/21 02:38:21;;;;;;;38.47;24.13;;;;;;;-3.85;100.00;101400.16;5001536;28;20212;-76
2023/01/21 02:40:57;;;;;;;40.60;23.08;;;;;;;-3.90;100.00;101397.59;4997357;28;20272;-76
2023/01/21 02:43:31;;;;;;;45.67;23.33;;;;;;;-3.94;100.00;101406.34;4997831;28;20225;-76
2023/01/21 02:46:02;;;;;;;42.63;24.67;;;;;;;-3.89;100.00;101406.28;5004288;28;20304;-77
2023/01/21 02:48:34;;;;;;;40.05;22.85;;;;;;;-3.85;100.00;101401.00;5005639;28;20288;-76
2023/01/21 02:51:01;;;;;;;39.55;24.67;;;;;;;-3.97;100.00;101401.16;5004573;28;20268;-77
2023/01/21 02:53:31;;;;;;;43.00;23.67;;;;;;;-4.04;100.00;101400.38;5004886;28;20236;-77
2023/01/21 02:56:09;;;;;;;39.10;23.48;;;;;;;-4.06;100.00;101406.47;5004462;28;20245;-75
2023/01/21 02:58:37;;;;;;;47.25;25.50;;;;;;;-4.08;100.00;101403.03;5004086;28;20704;-76
2023/01/21 03:01:12;;;;;;;43.70;24.63;;;;;;;-4.15;100.00;101404.84;5005121;28;20319;-76
2023/01/21 03:03:54;;;;;;;44.63;24.73;;;;;;;-4.07;100.00;101412.63;5004467;28;20263;-77
2023/01/21 03:06:36;;;;;;;49.28;28.05;;;;;;;-4.14;100.00;101414.44;5000433;28;20264;-76
2023/01/21 03:09:12;;;;;;;43.08;25.73;;;;;;;-4.13;100.00;101410.06;4990005;28;20212;-77
2023/01/21 03:11:41;;;;;;;42.55;25.20;;;;;;;-4.14;100.00;101411.81;5003259;28;20240;-77
2023/01/21 03:17:01;;;;;;;37.25;23.85;;;;;;;-4.22;100.00;101411.91;5000764;28;20291;-77
2023/01/21 03:19:35;;;;;;;45.67;24.60;;;;;;;-4.23;100.00;101414.53;5002640;28;20205;-77
2023/01/21 03:22:05;;;;;;;41.40;24.15;;;;;;;-4.23;100.00;101414.53;5003558;28;20240;-77
2023/01/21 03:24:32;;;;;;;47.63;23.83;;;;;;;-4.21;100.00;101415.38;4997914;28;20256;-77
2023/01/21 03:27:00;;;;;;;42.58;25.27;;;;;;;-4.16;100.00;101424.03;4990185;28;20257;-77
2023/01/21 03:29:29;;;;;;;47.08;26.00;;;;;;;-4.17;100.00;101417.06;5003503;28;20205;-77
2023/01/21 03:31:58;;;;;;;44.92;25.48;;;;;;;-4.22;100.00;101416.25;5004028;28;20296;-77
2023/01/21 03:34:26;;;;;;;42.95;25.02;;;;;;;-4.18;100.00;101424.03;5000308;28;20273;-77
2023/01/21 03:36:57;;;;;;;53.40;25.77;;;;;;;-4.18;100.00;101423.19;5003672;28;20998;-77
2023/01/21 03:39:29;;;;;;;41.67;25.23;;;;;;;-4.07;100.00;101423.06;5004266;28;20197;-77
2023/01/21 03:41:56;;;;;;;48.58;26.27;;;;;;;-3.81;100.00;101434.03;4999696;28;20291;-77
2023/01/21 03:44:23;;;;;;;43.75;25.95;;;;;;;-3.59;100.00;101428.53;5003640;28;20267;-77
2023/01/21 03:46:56;;;;;;;41.58;23.83;;;;;;;-3.33;100.00;101425.53;5004242;28;20296;-77
2023/01/21 03:49:29;;;;;;;44.20;25.55;;;;;;;-3.18;100.00;101431.41;4988757;28;20260;-76
2023/01/21 03:51:59;;;;;;;44.55;26.52;;;;;;;-2.97;100.00;101433.66;5002341;28;20264;-77
2023/01/21 03:54:25;;;;;;;46.03;27.30;;;;;;;-2.83;100.00;101433.44;5004051;28;20208;-77
2023/01/21 03:56:52;;;;;;;44.97;27.00;;;;;;;-2.63;100.00;101424.41;5003245;28;20240;-76
2023/01/21 03:59:19;;;;;;;48.80;26.00;;;;;;;-2.50;100.00;101429.38;5000194;28;20228;-77
2023/01/21 04:01:45;;;;;;;48.03;27.73;;;;;;;-2.38;100.00;101433.50;4997702;28;20309;-77
2023/01/21 04:04:12;;;;;;;48.63;28.17;;;;;;;-2.30;100.00;101436.84;5004074;28;20264;-77
2023/01/21 04:06:38;;;;;;;45.25;25.95;;;;;;;-2.23;100.00;101429.75;5002773;28;20264;-77
2023/01/21 04:09:07;;;;;;;51.42;27.85;;;;;;;-2.20;100.00;101442.78;5004114;28;20228;-77
2023/01/21 04:11:34;;;;;;;54.33;27.53;;;;;;;-2.06;100.00;101445.13;5003618;28;20251;-78
2023/01/21 04:14:00;;;;;;;50.00;27.60;;;;;;;-2.01;100.00;101443.28;5004272;28;20452;-78
2023/01/21 04:16:27;;;;;;;47.88;29.15;;;;;;;-2.06;100.00;101445.13;5003234;28;20271;-78
2023/01/21 04:18:54;;;;;;;51.90;28.65;;;;;;;-1.91;100.00;101449.19;5003698;28;20224;-78
2023/01/21 04:21:20;;;;;;;59.38;30.30;;;;;;;-1.90;100.00;101449.16;5002646;28;20248;-77
2023/01/21 04:23:47;;;;;;;58.73;28.17;;;;;;;-1.86;100.00;101452.56;5003479;28;20252;-76
2023/01/21 04:26:15;;;;;;;51.67;28.30;;;;;;;-1.72;100.00;101453.16;5002988;28;20484;-77
2023/01/21 04:28:42;;;;;;;54.33;31.17;;;;;;;-1.68;100.00;101458.31;5004235;28;20193;-78
2023/01/21 04:31:09;;;;;;;59.95;28.55;;;;;;;-1.64;100.00;101452.13;5002811;28;20551;-77
2023/01/21 04:33:35;;;;;;;67.85;30.20;;;;;;;-1.61;100.00;101446.84;5003712;28;20291;-79
2023/01/21 04:36:02;;;;;;;50.25;28.30;;;;;;;-1.57;100.00;101451.94;5002647;28;20702;-79
2023/01/21 04:38:28;;;;;;;62.20;31.77;;;;;;;-1.52;100.00;101454.50;5003322;28;20204;-79
2023/01/21 04:40:55;;;;;;;58.13;30.90;;;;;;;-1.45;100.00;101453.44;5002951;28;20510;-79
2023/01/21 04:43:23;;;;;;;52.77;29.47;;;;;;;-1.43;100.00;101451.66;5003028;28;21055;-78
2023/01/21 04:45:50;;;;;;;55.47;28.87;;;;;;;-1.47;100.00;101457.88;5002660;28;20542;-78
2023/01/21 04:48:17;;;;;;;52.45;28.33;;;;;;;-1.45;100.00;101458.69;5003585;28;20439;-79
2023/01/21 04:50:43;;;;;;;48.08;27.55;;;;;;;-1.39;100.00;101458.56;5002395;28;20341;-79
2023/01/21 04:53:10;;;;;;;52.23;27.40;;;;;;;-1.45;100.00;101460.47;5002997;28;20244;-80
2023/01/21 04:55:37;;;;;;;49.57;27.60;;;;;;;-1.42;100.00;101453.38;5002221;28;20499;-79
2023/01/21 04:58:03;;;;;;;63.90;32.17;;;;;;;-1.45;100.00;101465.72;5003253;28;20527;-79
2023/01/21 05:00:31;;;;;;;47.28;26.30;;;;;;;-1.39;100.00;101461.19;5002657;28;20496;-77
2023/01/21 05:02:58;;;;;;;58.17;29.50;;;;;;;-1.29;100.00;101456.59;4987479;28;20279;-78
2023/01/21 05:05:24;;;;;;;52.17;28.83;;;;;;;-1.25;100.00;101458.25;4991628;28;20716;-77
2023/01/21 05:07:52;;;;;;;48.30;27.47;;;;;;;-1.21;100.00;101457.28;5001521;28;20462;-77
2023/01/21 05:10:19;;;;;;;55.70;28.90;;;;;;;-1.26;100.00;101468.78;5002639;28;20451;-77
2023/01/21 05:12:45;;;;;;;51.77;28.20;;;;;;;-1.21;100.00;101470.41;5001431;28;20455;-78
2023/01/21 05:15:12;;;;;;;53.70;28.60;;;;;;;-1.19;100.00;101473.00;4992222;28;20456;-77
2023/01/21 05:17:40;;;;;;;54.40;29.17;;;;;;;-1.06;100.00;101476.19;4993437;28;20452;-75
2023/01/21 05:20:07;;;;;;;56.20;30.47;;;;;;;-1.10;100.00;101472.75;4999613;28;20494;-77
2023/01/21 05:22:34;;;;;;;52.80;28.77;;;;;;;-1.25;100.00;101483.59;5001844;28;20519;-77
2023/01/21 05:25:00;;;;;;;53.27;30.27;;;;;;;-1.12;100.00;101485.06;5000995;28;20518;-78
2023/01/21 05:27:27;;;;;;;54.33;29.87;;;;;;;-1.06;100.00;101478.81;5001023;28;20503;-77
2023/01/21 05:29:55;;;;;;;51.40;28.60;;;;;;;-1.00;100.00;101483.94;5002194;28;20580;-77
2023/01/21 05:32:22;;;;;;;53.13;27.80;;;;;;;-0.99;100.00;101483.00;5002000;28;20530;-76
2023/01/21 05:34:50;;;;;;;53.70;29.33;;;;;;;-0.97;100.00;101496.97;5002785;28;20476;-77
2023/01/21 05:37:17;;;;;;;54.83;28.90;;;;;;;-0.96;100.00;101496.06;5001003;28;20526;-77
2023/01/21 05:39:43;;;;;;;60.00;28.87;;;;;;;-0.89;100.00;101500.25;5002862;28;20471;-77
2023/01/21 05:42:12;;;;;;;54.70;29.97;;;;;;;-0.96;100.00;101501.31;5002403;28;20494;-77
2023/01/21 05:44:39;;;;;;;48.20;28.30;;;;;;;-0.92;100.00;101502.09;5005919;28;21118;-77
2023/01/21 05:47:06;;;;;;;57.20;29.63;;;;;;;-0.87;100.00;101508.09;5006009;28;20507;-77
2023/01/21 05:49:33;;;;;;;57.13;29.37;;;;;;;-0.90;100.00;101514.31;5007057;28;20440;-77
2023/01/21 05:52:01;;;;;;;50.37;28.90;;;;;;;-0.88;100.00;101522.16;5005138;28;21015;-78
2023/01/21 05:54:27;;;;;;;51.77;27.70;;;;;;;-0.91;100.00;101523.06;5006314;28;20472;-78
2023/01/21 05:56:54;;;;;;;58.90;29.53;;;;;;;-0.89;100.00;101529.13;5005918;28;20507;-78
2023/01/21 05:59:21;;;;;;;51.40;27.43;;;;;;;-0.82;100.00;101535.13;5006324;28;20490;-78
2023/01/21 06:01:47;;;;;;;53.60;28.23;;;;;;;-0.82;100.00;101532.50;5005906;28;20522;-77
2023/01/21 06:04:14;;;;;;;57.90;30.87;;;;;;;-0.81;100.00;101539.47;5006069;28;20579;-78
2023/01/21 06:06:40;;;;;;;53.03;29.87;;;;;;;-0.80;100.00;101535.94;5004971;28;20516;-78
2023/01/21 06:09:09;;;;;;;57.03;30.20;;;;;;;-0.72;100.00;101535.78;5006722;28;20482;-78
2023/01/21 06:11:35;;;;;;;54.20;28.80;;;;;;;-0.71;100.00;101534.84;5005240;28;20487;-78
2023/01/21 06:14:02;;;;;;;57.73;30.67;;;;;;;-0.68;100.00;101540.03;5005731;28;20501;-78
2023/01/21 06:16:28;;;;;;;50.23;28.20;;;;;;;-0.67;100.00;101536.53;4989121;28;20845;-77
2023/01/21 06:18:55;;;;;;;49.67;27.30;;;;;;;-0.67;100.00;101549.66;4998732;28;20479;-78
2023/01/21 06:21:22;;;;;;;58.43;28.13;;;;;;;-0.58;100.00;101547.66;5000422;28;20499;-78
2023/01/21 06:23:48;;;;;;;55.93;27.43;;;;;;;-0.57;100.00;101553.78;4997439;28;20524;-79
2023/01/21 06:26:16;;;;;;;55.03;31.00;;;;;;;-0.56;100.00;101547.63;4998653;28;20510;-78
2023/01/21 06:28:43;;;;;;;59.37;29.07;;;;;;;-0.49;100.00;101549.19;4996965;28;20451;-79
2023/01/21 06:31:09;;;;;;;61.87;28.80;;;;;;;-0.45;100.00;101553.50;5001012;28;20542;-78
2023/01/21 06:33:36;;;;;;;53.03;29.43;;;;;;;-0.44;100.00;101562.22;5003612;28;20479;-80
2023/01/21 06:36:03;;;;;;;61.67;28.83;;;;;;;-0.42;100.00;101563.94;4996742;28;20509;-76
2023/01/21 06:38:29;;;;;;;58.33;29.90;;;;;;;-0.43;100.00;101569.22;5003607;28;20470;-77
2023/01/21 06:40:56;;;;;;;60.90;31.70;;;;;;;-0.41;100.00;101572.66;4987248;28;20479;-77
2023/01/21 06:43:24;;;;;;;57.07;29.10;;;;;;;-0.41;100.00;101581.41;5001884;28;20483;-77
2023/01/21 06:45:51;;;;;;;61.83;29.80;;;;;;;-0.42;100.00;101570.94;5001740;28;20526;-78
2023/01/21 06:48:17;;;;;;;53.73;27.40;;;;;;;-0.38;100.00;101580.47;5004183;28;20460;-77
2023/01/21 06:50:44;;;;;;;58.00;27.23;;;;;;;-0.45;100.00;101582.38;5002033;28;20479;-76
2023/01/21 06:53:10;;;;;;;58.30;29.47;;;;;;;-0.33;100.00;101577.72;4997873;28;20503;-77
2023/01/21 06:55:37;;;;;;;59.10;29.00;;;;;;;-0.48;100.00;101584.22;4993362;28;20487;-75
2023/01/21 06:58:04;;;;;;;57.73;27.87;;;;;;;-0.43;100.00;101579.72;4994528;28;20475;-75
2023/01/21 07:00:32;;;;;;;54.47;27.87;;;;;;;-0.41;100.00;101586.66;4995188;28;20470;-75
2023/01/21 07:02:59;;;;;;;57.63;29.30;;;;;;;-0.41;100.00;101586.66;4994604;28;20448;-75
2023/01/21 07:05:26;;;;;;;56.13;28.27;;;;;;;-0.34;100.00;101590.00;4995030;28;22137;-75
2023/01/21 07:07:54;;;;;;;58.40;29.77;;;;;;;-0.30;100.00;101588.16;4992535;28;20441;-75
2023/01/21 07:10:20;;;;;;;61.90;28.13;;;;;;;-0.25;100.00;101591.53;4993844;28;20436;-75
2023/01/21 07:12:47;;;;;;;62.23;31.60;;;;;;;-0.22;100.00;101594.09;4996053;28;20449;-75
2023/01/21 07:15:14;;;;;;;58.07;31.27;;;;;;;-0.27;100.00;101599.47;4992135;28;20455;-75
2023/01/21 07:17:42;;;;;;;52.90;32.00;;;;;;;-0.23;100.00;101605.50;4992684;28;20437;-75
2023/01/21 07:20:11;;;;;;;58.37;30.07;;;;;;;-0.18;100.00;101608.88;4993574;28;20477;-77
2023/01/21 07:22:37;;;;;;;52.53;28.90;;;;;;;-0.23;100.00;101608.13;4992875;28;20469;-77
2023/01/21 07:25:05;;;;;;;53.10;28.17;;;;;;;-0.43;100.00;101614.75;4993322;28;20707;-76
2023/01/21 07:27:32;;;;;;;52.53;27.97;;;;;;;-0.30;100.00;101611.81;4996401;28;20572;-77
2023/01/21 07:29:58;;;;;;;49.70;28.17;;;;;;;-0.34;100.00;101618.06;4997706;28;20920;-77
2023/01/21 07:32:25;;;;;;;52.97;27.90;;;;;;;-0.48;100.00;101627.13;4991689;28;20511;-76
2023/01/21 07:34:53;;;;;;;54.03;26.40;;;;;;;-0.35;100.00;101621.56;4995356;28;20472;-76
2023/01/21 07:37:19;;;;;;;55.60;27.57;;;;;;;-0.46;100.00;101624.47;4991370;28;20512;-76
2023/01/21 07:39:46;;;;;;;57.50;28.53;;;;;;;-0.55;100.00;101627.31;4993415;28;20477;-77
2023/01/21 07:42:13;;;;;;;56.43;28.00;;;;;;;-0.47;100.00;101626.22;4991301;28;21054;-76
2023/01/21 07:44:39;;;;;;;61.50;27.83;;;;;;;-0.33;100.00;101635.53;4987929;28;20515;-76
2023/01/21 07:47:06;;;;;;;54.50;27.00;;;;;;;-0.06;100.00;101645.38;4994172;28;20926;-92
2023/01/21 07:49:33;;;;;;;61.03;28.20;;;;;;;0.07;100.00;101647.69;4993933;28;20810;-92
2023/01/21 07:52:00;;;;;;;61.33;30.40;;;;;;;-0.11;100.00;101642.00;4996745;28;20671;-78
2023/01/21 07:54:27;;;;;;;60.30;29.13;;;;;;;-0.24;100.00;101643.22;4998587;28;20445;-77
2023/01/21 07:56:54;;;;;;;55.40;27.10;;;;;;;-0.13;100.00;101635.06;4995480;28;20503;-78
2023/01/21 07:59:20;;;;;;;57.53;29.33;;;;;;;-0.11;100.00;101638.50;4993879;28;20451;-77
2023/01/21 08:01:47;;;;;;;63.13;28.57;;;;;;;-0.38;100.00;101646.16;4994537;28;20511;-76
2023/01/21 08:04:14;;;;;;;65.83;30.33;;;;;;;-0.36;100.00;101652.25;4996071;28;20492;-77
2023/01/21 08:06:41;;;;;;;68.17;29.50;;;;;;;-0.42;100.00;101647.13;4991871;28;20487;-77
2023/01/21 08:09:09;;;;;;;60.80;30.70;;;;;;;-0.18;100.00;101648.31;4996102;28;20456;-76
2023/01/21 08:11:35;;;;;;;62.73;30.30;;;;;;;-0.04;100.00;101647.97;4992200;28;20480;-77
2023/01/21 08:14:02;;;;;;;65.03;28.87;;;;;;;0.15;100.00;101649.22;4995478;28;20539;-77
2023/01/21 08:16:29;;;;;;;56.40;28.70;;;;;;;0.22;100.00;101652.56;4992635;28;21028;-78
2023/01/21 08:18:55;;;;;;;61.73;30.80;;;;;;;0.18;100.00;101664.06;4996656;28;20433;-77
2023/01/21 08:21:22;;;;;;;62.47;30.07;;;;;;;-0.10;100.00;101656.03;4992757;28;20499;-78
2023/01/21 08:23:49;;;;;;;60.83;29.07;;;;;;;-0.04;100.00;101661.97;4994337;28;20458;-75
2023/01/21 08:26:17;;;;;;;56.40;27.53;;;;;;;0.09;100.00;101666.94;4990585;28;20476;-76
2023/01/21 08:28:43;;;;;;;66.80;33.63;;;;;;;-0.26;100.00;101671.28;4991821;28;20468;-74
2023/01/21 08:31:12;;;;;;;64.37;30.47;;;;;;;-0.24;100.00;101669.50;4993942;28;20864;-75
2023/01/21 08:33:39;;;;;;;64.37;30.97;;;;;;;-0.14;100.00;101665.75;4994579;28;20448;-74
2023/01/21 08:36:08;;;;;;;64.13;30.03;;;;;;;-0.06;100.00;101671.66;4993541;28;20527;-74
2023/01/21 08:38:35;;;;;;;59.53;32.17;;;;;;;0.12;100.00;101672.09;4995696;28;20468;-75
2023/01/21 08:41:02;;;;;;;56.03;28.80;;;;;;;-0.08;100.00;101664.72;4996153;28;21046;-75
2023/01/21 08:43:30;;;;;;;62.20;29.50;;;;;;;-0.13;100.00;101671.88;4992496;28;20949;-74
2023/01/21 08:45:58;;;;;;;64.30;32.77;;;;;;;0.00;100.00;101670.66;4992139;28;20483;-76
2023/01/21 08:48:24;;;;;;;67.90;31.20;;;;;;;0.23;100.00;101677.13;4994828;28;20500;-74
2023/01/21 08:50:51;;;;;;;66.63;32.03;;;;;;;0.27;100.00;101682.25;4993896;28;20508;-74
2023/01/21 08:53:18;;;;;;;58.40;29.53;;;;;;;0.13;100.00;101679.97;4994722;28;20476;-73
2023/01/21 08:55:44;;;;;;;63.10;28.93;;;;;;;0.28;100.00;101683.97;4991369;28;20502;-74
2023/01/21 08:58:11;;;;;;;63.53;29.93;;;;;;;0.13;100.00;101687.00;4993454;28;20441;-75
2023/01/21 09:00:40;;;;;;;66.13;31.90;;;;;;;0.31;100.00;101693.53;4994042;28;20471;-75
2023/01/21 09:03:07;;;;;;;64.70;33.70;;;;;;;0.18;100.00;101687.75;4993711;28;20583;-74
2023/01/21 09:05:34;;;;;;;62.63;29.97;;;;;;;0.17;100.00;101694.78;5000018;28;20484;-73
2023/01/21 09:08:00;;;;;;;64.07;30.03;;;;;;;0.31;100.00;101702.31;4997444;28;20492;-74
2023/01/21 09:13:11;;;;;;;73.30;31.00;;;;;;;0.27;100.00;101711.16;4997086;28;20528;-73
2023/01/21 09:15:39;;;;;;;74.03;33.03;;;;;;;0.31;100.00;101712.84;4990428;28;20523;-72
2023/01/21 09:18:06;;;;;;;63.57;30.90;;;;;;;0.48;100.00;101716.78;4994234;28;20467;-72
2023/01/21 09:20:33;;;;;;;74.37;34.73;;;;;;;0.31;100.00;101717.22;4994824;28;20484;-72
2023/01/21 09:22:59;;;;;;;65.93;32.00;;;;;;;0.56;100.00;101718.31;4997539;28;20459;-72
2023/01/21 09:25:26;;;;;;;62.87;30.77;;;;;;;0.86;100.00;101718.41;4990651;28;20536;-72
2023/01/21 09:27:53;;;;;;;64.50;31.87;;;;;;;0.22;100.00;101717.47;4997949;28;20451;-72
2023/01/21 09:30:21;;;;;;;66.77;32.63;;;;;;;0.43;100.00;101721.31;4994331;28;20693;-73
2023/01/21 09:32:49;;;;;;;74.27;34.93;;;;;;;0.67;100.00;101731.19;4989616;28;20524;-73
2023/01/21 09:35:15;;;;;;;75.50;34.13;;;;;;;0.37;100.00;101733.72;4990269;28;20855;-73
2023/01/21 09:37:42;;;;;;;69.07;30.90;;;;;;;0.42;100.00;101743.25;5001234;28;20502;-73
2023/01/21 09:40:14;;;;;;;64.57;31.20;;;;;;;0.27;100.00;101748.00;4997685;28;20455;-73
2023/01/21 09:42:42;;;;;;;83.67;33.07;;;;;;;0.52;100.00;101752.63;5001700;28;20460;-71
2023/01/21 09:45:13;;;;;;;65.07;33.17;;;;;;;0.25;100.00;101759.47;5000714;28;20797;-73
2023/01/21 09:47:42;;;;;;;61.20;29.90;;;;;;;0.21;100.00;101753.44;5000524;28;20479;-73
2023/01/21 09:50:13;;;;;;;50.00;26.90;;;;;;;0.28;100.00;101759.38;4997401;28;20521;-74
2023/01/21 09:52:41;;;;;;;68.53;29.83;;;;;;;0.28;100.00;101762.00;4999892;28;20849;-77
2023/01/21 09:55:15;;;;;;;61.97;30.17;;;;;;;0.28;100.00;101775.16;5000557;28;20492;-76
2023/01/21 09:57:58;;;;;;;66.03;29.10;;;;;;;0.21;100.00;101779.72;5002473;28;20490;-77
2023/01/21 10:00:30;;;;;;;60.67;28.00;;;;;;;0.48;100.00;101769.41;4993092;28;20448;-75
2023/01/21 10:03:01;;;;;;;60.77;29.10;;;;;;;0.40;100.00;101771.38;4993943;28;20803;-76
2023/01/21 10:05:52;;;;;;;61.53;31.20;;;;;;;0.44;100.00;101773.91;5001004;28;20468;-75
2023/01/21 10:08:25;;;;;;;61.23;29.57;;;;;;;0.25;100.00;101780.50;5001669;28;20459;-73
2023/01/21 10:10:52;;;;;;;63.50;29.83;;;;;;;0.26;100.00;101782.22;5000950;28;20941;-74
2023/01/21 10:13:42;;;;;;;68.93;30.80;;;;;;;0.43;100.00;101776.56;5002119;28;20487;-75
2023/01/21 10:16:14;;;;;;;52.60;29.00;;;;;;;0.54;100.00;101782.44;5000560;28;20539;-75
2023/01/21 10:18:44;;;;;;;74.70;30.77;;;;;;;0.46;100.00;101794.91;5002045;28;20436;-75
2023/01/21 10:21:16;;;;;;;68.53;29.87;;;;;;;0.32;100.00;101792.63;5000225;28;20500;-75
2023/01/21 10:23:47;;;;;;;75.80;32.00;;;;;;;0.18;100.00;101795.56;4993133;28;20508;-74
2023/01/21 10:26:14;;;;;;;66.03;32.53;;;;;;;0.41;100.00;101792.38;4990242;28;20507;-76
2023/01/21 10:28:43;;;;;;;64.50;31.20;;;;;;;0.70;100.00;101791.66;4985868;28;20498;-75
2023/01/21 10:31:18;;;;;;;65.77;31.90;;;;;;;0.63;100.00;101791.88;5003774;28;20475;-75
2023/01/21 10:33:44;;;;;;;68.07;30.17;;;;;;;0.87;100.00;101799.13;5005353;28;20512;-75
2023/01/21 10:36:30;;;;;;;63.23;31.70;;;;;;;0.74;100.00;101789.81;5004345;28;20962;-75
2023/01/21 10:39:01;;;;;;;71.00;29.83;;;;;;;0.66;100.00;101789.13;4991207;28;20444;-75
2023/01/21 10:41:36;;;;;;;69.73;31.60;;;;;;;0.60;100.00;101790.16;5004743;28;20499;-76
2023/01/21 10:44:07;;;;;;;70.77;31.23;;;;;;;0.67;100.00;101790.88;5004802;28;20468;-74
2023/01/21 10:46:41;;;;;;;64.03;29.20;;;;;;;0.64;100.00;101794.44;5001256;28;20512;-75
2023/01/21 10:49:22;;;;;;;57.97;29.83;;;;;;;0.48;100.00;101788.69;5003113;28;20893;-76
2023/01/21 10:51:52;;;;;;;61.90;29.47;;;;;;;0.60;100.00;101800.69;4997433;28;20510;-76
2023/01/21 10:54:22;;;;;;;57.73;29.20;;;;;;;0.54;100.00;101799.06;4998047;28;20464;-75
2023/01/21 10:56:54;;;;;;;67.63;29.23;;;;;;;0.54;100.00;101792.97;4992592;28;20479;-76
2023/01/21 10:59:22;;;;;;;59.70;28.13;;;;;;;0.58;100.00;101799.00;5004714;28;20490;-75
2023/01/21 11:01:51;;;;;;;58.17;27.80;;;;;;;0.71;100.00;101803.03;5003755;28;20503;-74
2023/01/21 11:04:20;;;;;;;50.97;27.87;;;;;;;0.73;100.00;101796.00;5004288;28;20487;-74
2023/01/21 11:06:54;;;;;;;58.03;26.33;;;;;;;0.81;100.00;101796.63;5003335;28;20522;-74
2023/01/21 11:09:22;;;;;;;52.30;28.17;;;;;;;0.84;100.00;101800.97;4997703;28;20447;-74
2023/01/21 11:11:49;;;;;;;58.03;27.37;;;;;;;0.98;100.00;101790.94;4992406;28;20850;-75
2023/01/21 11:14:15;;;;;;;50.10;25.80;;;;;;;0.88;100.00;101790.31;4999288;28;20488;-73
2023/01/21 11:16:44;;;;;;;61.50;26.17;;;;;;;1.06;100.00;101774.91;4996171;28;20507;-75